sensor_id;sensor_type;location;lat;lon;timestamp;temperature;humidity
1534;DHT22;760;48.822;9.304;2023-02-04T05:06:11;7.10;99.90
1534;DHT22;760;48.822;9.304;2023-02-04T05:08:37;7.00;99.90
1534;DHT22;760;48.822;9.304;2023-02-04T05:11:03;7.00;99.90
1534;DHT22;760;48.822;9.304;2023-02-04T05:13:29;6.90;99.90
1534;DHT22;760;48.822;9.304;2023-02-04T05:15:55;6.90;99.90
1534;DHT22;760;48.822;9.304;2023-02-04T05:18:20;6.90;99.90
1534;DHT22;760;48.822;9.304;2023-02-04T05:20:46;6.80;99.90
1534;DHT22;760;48.822;9.304;2023-02-04T05:23:11;6.80;99.90
1534;DHT22;760;48.822;9.304;2023-02-04T05:25:37;6.80;99.90
1534;DHT22;760;48.822;9.304;2023-02-04T05:28:03;6.80;99.90
1534;DHT22;760;48.822;9.304;2023-02-04T05:30:29;6.80;99.90
1534;DHT22;760;48.822;9.304;2023-02-04T05:32:54;6.70;99.90
1534;DHT22;760;48.822;9.304;2023-02-04T05:35:20;6.70;99.90
1534;DHT22;760;48.822;9.304;2023-02-04T05:37:45;6.70;99.90
1534;DHT22;760;48.822;9.304;2023-02-04T05:40:11;6.70;99.90
1534;DHT22;760;48.822;9.304;2023-02-04T05:42:37;6.70;99.90
1534;DHT22;760;48.822;9.304;2023-02-04T05:45:03;6.70;99.90
1534;DHT22;760;48.822;9.304;2023-02-04T05:47:29;6.70;99.90
1534;DHT22;760;48.822;9.304;2023-02-04T05:49:54;6.70;99.90
1534;DHT22;760;48.822;9.304;2023-02-04T05:52:20;6.60;99.90
1534;DHT22;760;48.822;9.304;2023-02-04T05:54:46;6.60;99.90
1534;DHT22;760;48.822;9.304;2023-02-04T05:57:11;6.60;99.90
1534;DHT22;760;48.822;9.304;2023-02-04T05:59:37;6.60;99.90
1534;DHT22;760;48.822;9.304;2023-02-04T06:02:02;6.60;99.90
1534;DHT22;760;48.822;9.304;2023-02-04T06:04:28;6.60;99.90
1534;DHT22;760;48.822;9.304;2023-02-04T06:06:54;6.60;99.90
1534;DHT22;760;48.822;9.304;2023-02-04T06:09:19;6.60;99.90
1534;DHT22;760;48.822;9.304;2023-02-04T06:11:45;6.60;99.90
1534;DHT22;760;48.822;9.304;2023-02-04T06:14:10;6.60;99.90
1534;DHT22;760;48.822;9.304;2023-02-04T06:16:36;6.50;99.90
1534;DHT22;760;48.822;9.304;2023-02-04T06:19:01;6.50;99.90
1534;DHT22;760;48.822;9.304;2023-02-04T06:21:27;6.50;99.90
1534;DHT22;760;48.822;9.304;2023-02-04T06:23:53;6.50;99.90
1534;DHT22;760;48.822;9.304;2023-02-04T06:26:18;6.40;99.90
1534;DHT22;760;48.822;9.304;2023-02-04T06:28:44;6.40;99.90
1534;DHT22;760;48.822;9.304;2023-02-04T06:31:09;6.40;99.90
1534;DHT22;760;48.822;9.304;2023-02-04T06:33:36;6.40;99.90
1534;DHT22;760;48.822;9.304;2023-02-04T06:36:02;6.30;99.90
1534;DHT22;760;48.822;9.304;2023-02-04T06:38:28;6.30;99.90
1534;DHT22;760;48.822;9.304;2023-02-04T06:40:53;6.40;99.90
1534;DHT22;760;48.822;9.304;2023-02-04T06:43:19;6.30;99.90
1534;DHT22;760;48.822;9.304;2023-02-04T06:45:45;6.30;99.90
1534;DHT22;760;48.822;9.304;2023-02-04T06:48:11;6.30;99.90
1534;DHT22;760;48.822;9.304;2023-02-04T06:50:37;6.30;99.90
1534;DHT22;760;48.822;9.304;2023-02-04T06:53:02;6.30;99.90
1534;DHT22;760;48.822;9.304;2023-02-04T06:55:29;6.30;99.90
1534;DHT22;760;48.822;9.304;2023-02-04T06:57:54;6.30;99.90
1534;DHT22;760;48.822;9.304;2023-02-04T07:00:20;6.30;99.90
1534;DHT22;760;48.822;9.304;2023-02-04T07:02:46;6.30;99.90
1534;DHT22;760;48.822;9.304;2023-02-04T07:05:11;6.30;99.90
1534;DHT22;760;48.822;9.304;2023-02-04T07:07:37;6.30;99.90
1534;DHT22;760;48.822;9.304;2023-02-04T07:10:03;6.40;99.90
1534;DHT22;760;48.822;9.304;2023-02-04T07:12:29;6.40;99.90
1534;DHT22;760;48.822;9.304;2023-02-04T07:14:56;6.40;99.90
1534;DHT22;760;48.822;9.304;2023-02-04T07:17:22;6.40;99.90
1534;DHT22;760;48.822;9.304;2023-02-04T07:19:48;6.50;99.90
1534;DHT22;760;48.822;9.304;2023-02-04T07:22:13;6.50;99.90
1534;DHT22;760;48.822;9.304;2023-02-04T07:24:39;6.40;99.90
1534;DHT22;760;48.822;9.304;2023-02-04T07:27:05;6.50;99.90
1534;DHT22;760;48.822;9.304;2023-02-04T07:29:30;6.50;99.90
1534;DHT22;760;48.822;9.304;2023-02-04T07:31:56;6.50;99.90
1534;DHT22;760;48.822;9.304;2023-02-04T07:34:21;6.50;99.90
1534;DHT22;760;48.822;9.304;2023-02-04T07:36:47;6.50;99.90
1534;DHT22;760;48.822;9.304;2023-02-04T07:39:13;6.50;99.90
1534;DHT22;760;48.822;9.304;2023-02-04T07:41:38;6.60;99.90
1534;DHT22;760;48.822;9.304;2023-02-04T07:44:04;6.60;99.90
1534;DHT22;760;48.822;9.304;2023-02-04T07:46:29;6.60;99.90
1534;DHT22;760;48.822;9.304;2023-02-04T07:48:55;6.60;99.90
1534;DHT22;760;48.822;9.304;2023-02-04T07:51:21;6.70;99.90
1534;DHT22;760;48.822;9.304;2023-02-04T07:53:46;6.70;99.90
1534;DHT22;760;48.822;9.304;2023-02-04T07:56:12;6.70;99.90
1534;DHT22;760;48.822;9.304;2023-02-04T07:58:37;6.80;99.90
1534;DHT22;760;48.822;9.304;2023-02-04T08:01:03;6.80;99.90
1534;DHT22;760;48.822;9.304;2023-02-04T08:03:29;6.90;99.90
1534;DHT22;760;48.822;9.304;2023-02-04T08:05:54;6.90;99.90
1534;DHT22;760;48.822;9.304;2023-02-04T08:08:20;6.90;99.90
1534;DHT22;760;48.822;9.304;2023-02-04T08:10:46;7.00;99.90
1534;DHT22;760;48.822;9.304;2023-02-04T08:13:12;7.00;99.90
1534;DHT22;760;48.822;9.304;2023-02-04T08:15:38;7.00;99.90
1534;DHT22;760;48.822;9.304;2023-02-04T08:18:03;7.00;99.90
1534;DHT22;760;48.822;9.304;2023-02-04T08:20:29;7.00;99.90
1534;DHT22;760;48.822;9.304;2023-02-04T08:22:55;7.00;99.90
1534;DHT22;760;48.822;9.304;2023-02-04T08:25:21;7.10;99.90
1534;DHT22;760;48.822;9.304;2023-02-04T08:27:47;7.20;99.90
1534;DHT22;760;48.822;9.304;2023-02-04T08:30:13;7.20;99.90
1534;DHT22;760;48.822;9.304;2023-02-04T08:32:38;7.20;99.90
1534;DHT22;760;48.822;9.304;2023-02-04T08:35:05;7.20;99.90
1534;DHT22;760;48.822;9.304;2023-02-04T08:37:31;7.30;99.90
1534;DHT22;760;48.822;9.304;2023-02-04T08:39:56;7.30;99.90
1534;DHT22;760;48.822;9.304;2023-02-04T08:42:22;7.40;99.90
1534;DHT22;760;48.822;9.304;2023-02-04T08:44:48;7.50;99.90
1534;DHT22;760;48.822;9.304;2023-02-04T08:47:13;7.50;99.90
1534;DHT22;760;48.822;9.304;2023-02-04T08:49:39;7.60;99.90
1534;DHT22;760;48.822;9.304;2023-02-04T08:52:05;7.60;99.90
1534;DHT22;760;48.822;9.304;2023-02-04T08:54:32;7.60;99.90
1534;DHT22;760;48.822;9.304;2023-02-04T08:56:58;7.70;99.90
1534;DHT22;760;48.822;9.304;2023-02-04T08:59:24;7.80;99.90
1534;DHT22;760;48.822;9.304;2023-02-04T09:01:50;7.80;99.90
1534;DHT22;760;48.822;9.304;2023-02-04T09:04:20;7.80;99.90
1534;DHT22;760;48.822;9.304;2023-02-04T09:06:47;7.90;99.90
1534;DHT22;760;48.822;9.304;2023-02-04T09:09:13;8.00;99.90
1534;DHT22;760;48.822;9.304;2023-02-04T09:11:39;8.00;99.90
1534;DHT22;760;48.822;9.304;2023-02-04T09:14:05;8.10;99.90
1534;DHT22;760;48.822;9.304;2023-02-04T09:16:31;8.10;99.90
1534;DHT22;760;48.822;9.304;2023-02-04T09:18:56;8.30;99.90
1534;DHT22;760;48.822;9.304;2023-02-04T09:21:27;8.40;99.90
1534;DHT22;760;48.822;9.304;2023-02-04T09:23:52;8.70;99.90
1534;DHT22;760;48.822;9.304;2023-02-04T09:26:18;8.90;99.90
1534;DHT22;760;48.822;9.304;2023-02-04T09:28:44;9.40;99.90
1534;DHT22;760;48.822;9.304;2023-02-04T09:31:09;9.90;99.90
1534;DHT22;760;48.822;9.304;2023-02-04T09:33:36;10.50;99.90
1534;DHT22;760;48.822;9.304;2023-02-04T09:36:03;11.00;99.90
1534;DHT22;760;48.822;9.304;2023-02-04T09:38:29;11.20;99.90
1534;DHT22;760;48.822;9.304;2023-02-04T09:41:01;11.10;99.90
1534;DHT22;760;48.822;9.304;2023-02-04T09:43:29;11.00;99.90
1534;DHT22;760;48.822;9.304;2023-02-04T09:45:56;10.80;99.90
1534;DHT22;760;48.822;9.304;2023-02-04T09:48:23;10.50;99.90
1534;DHT22;760;48.822;9.304;2023-02-04T09:50:50;10.20;99.90
1534;DHT22;760;48.822;9.304;2023-02-04T09:53:18;10.10;99.90
1534;DHT22;760;48.822;9.304;2023-02-04T09:55:46;10.70;99.90
1534;DHT22;760;48.822;9.304;2023-02-04T09:58:16;11.60;99.90
1534;DHT22;760;48.822;9.304;2023-02-04T10:00:44;12.70;99.90
1534;DHT22;760;48.822;9.304;2023-02-04T10:03:14;13.20;98.70
1534;DHT22;760;48.822;9.304;2023-02-04T10:05:41;13.10;96.90
1534;DHT22;760;48.822;9.304;2023-02-04T10:08:13;12.80;96.70
1534;DHT22;760;48.822;9.304;2023-02-04T10:10:39;12.40;98.30
1534;DHT22;760;48.822;9.304;2023-02-04T10:13:05;11.80;99.90
1534;DHT22;760;48.822;9.304;2023-02-04T10:15:32;11.60;99.90
1534;DHT22;760;48.822;9.304;2023-02-04T10:18:02;11.50;99.90
1534;DHT22;760;48.822;9.304;2023-02-04T10:20:29;11.30;99.90
1534;DHT22;760;48.822;9.304;2023-02-04T10:22:55;11.00;99.90
1534;DHT22;760;48.822;9.304;2023-02-04T10:25:23;10.60;99.90
1534;DHT22;760;48.822;9.304;2023-02-04T10:27:54;10.10;99.90
1534;DHT22;760;48.822;9.304;2023-02-04T10:30:21;9.80;99.90
1534;DHT22;760;48.822;9.304;2023-02-04T10:32:47;9.60;99.90
1534;DHT22;760;48.822;9.304;2023-02-04T10:35:14;9.40;99.90
1534;DHT22;760;48.822;9.304;2023-02-04T10:37:40;9.30;99.90
1534;DHT22;760;48.822;9.304;2023-02-04T10:40:40;9.30;99.90
1534;DHT22;760;48.822;9.304;2023-02-04T10:43:09;9.20;99.90
1534;DHT22;760;48.822;9.304;2023-02-04T10:45:35;9.10;99.90
1534;DHT22;760;48.822;9.304;2023-02-04T10:48:00;9.10;99.90
1534;DHT22;760;48.822;9.304;2023-02-04T10:50:27;8.90;99.90
1534;DHT22;760;48.822;9.304;2023-02-04T10:52:56;8.90;99.90
1534;DHT22;760;48.822;9.304;2023-02-04T10:55:46;8.90;99.90
1534;DHT22;760;48.822;9.304;2023-02-04T10:58:17;9.00;99.90
1534;DHT22;760;48.822;9.304;2023-02-04T11:00:44;9.10;99.90
1534;DHT22;760;48.822;9.304;2023-02-04T11:03:15;9.30;99.90
1534;DHT22;760;48.822;9.304;2023-02-04T11:05:43;9.40;99.90
1534;DHT22;760;48.822;9.304;2023-02-04T11:08:20;9.70;99.90
1534;DHT22;760;48.822;9.304;2023-02-04T11:10:49;9.80;99.90
1534;DHT22;760;48.822;9.304;2023-02-04T11:13:25;9.90;99.90
1534;DHT22;760;48.822;9.304;2023-02-04T11:19:08;10.60;99.90
1534;DHT22;760;48.822;9.304;2023-02-04T11:26:40;10.30;99.90
1534;DHT22;760;48.822;9.304;2023-02-04T11:34:11;10.00;99.90
1534;DHT22;760;48.822;9.304;2023-02-04T11:37:03;9.80;99.90
1534;DHT22;760;48.822;9.304;2023-02-04T11:39:39;9.70;99.90
1534;DHT22;760;48.822;9.304;2023-02-04T11:42:23;9.70;99.90
1534;DHT22;760;48.822;9.304;2023-02-04T11:44:58;9.70;99.90
1534;DHT22;760;48.822;9.304;2023-02-04T11:47:25;9.60;99.90
1534;DHT22;760;48.822;9.304;2023-02-04T11:49:57;9.50;99.90
1534;DHT22;760;48.822;9.304;2023-02-04T11:52:23;9.30;99.90
1534;DHT22;760;48.822;9.304;2023-02-04T11:54:58;9.20;99.90
1534;DHT22;760;48.822;9.304;2023-02-04T11:57:25;9.20;99.90
1534;DHT22;760;48.822;9.304;2023-02-04T11:59:51;9.30;99.90
1534;DHT22;760;48.822;9.304;2023-02-04T12:02:19;9.20;99.90
1534;DHT22;760;48.822;9.304;2023-02-04T12:04:56;9.30;99.90
1534;DHT22;760;48.822;9.304;2023-02-04T12:07:28;9.30;99.90
1534;DHT22;760;48.822;9.304;2023-02-04T12:09:55;9.30;99.90
1534;DHT22;760;48.822;9.304;2023-02-04T12:12:29;9.30;99.90
1534;DHT22;760;48.822;9.304;2023-02-04T12:15:07;9.50;99.90
1534;DHT22;760;48.822;9.304;2023-02-04T12:17:33;9.60;99.90
1534;DHT22;760;48.822;9.304;2023-02-04T12:19:59;9.70;99.90
1534;DHT22;760;48.822;9.304;2023-02-04T12:22:25;9.70;99.90
1534;DHT22;760;48.822;9.304;2023-02-04T12:24:51;9.90;99.90
1534;DHT22;760;48.822;9.304;2023-02-04T12:27:17;10.00;99.90
1534;DHT22;760;48.822;9.304;2023-02-04T12:29:42;9.90;99.90
1534;DHT22;760;48.822;9.304;2023-02-04T12:32:08;9.90;99.90
1534;DHT22;760;48.822;9.304;2023-02-04T12:34:33;9.80;99.90
1534;DHT22;760;48.822;9.304;2023-02-04T12:36:59;9.80;99.90
1534;DHT22;760;48.822;9.304;2023-02-04T12:39:25;9.80;99.90
1534;DHT22;760;48.822;9.304;2023-02-04T12:41:50;9.70;99.90
1534;DHT22;760;48.822;9.304;2023-02-04T12:44:16;9.60;99.90
1534;DHT22;760;48.822;9.304;2023-02-04T12:46:41;9.60;99.90
1534;DHT22;760;48.822;9.304;2023-02-04T12:49:07;9.40;99.90
1534;DHT22;760;48.822;9.304;2023-02-04T12:51:32;9.40;99.90
1534;DHT22;760;48.822;9.304;2023-02-04T12:53:58;9.40;99.90
1534;DHT22;760;48.822;9.304;2023-02-04T12:56:24;9.30;99.90
1534;DHT22;760;48.822;9.304;2023-02-04T12:58:49;9.30;99.90
1534;DHT22;760;48.822;9.304;2023-02-04T13:01:15;9.40;99.90
1534;DHT22;760;48.822;9.304;2023-02-04T13:03:40;9.40;99.90
1534;DHT22;760;48.822;9.304;2023-02-04T13:06:06;9.30;99.90
1534;DHT22;760;48.822;9.304;2023-02-04T13:08:31;9.30;99.90
1534;DHT22;760;48.822;9.304;2023-02-04T13:10:57;9.30;99.90
1534;DHT22;760;48.822;9.304;2023-02-04T13:13:23;9.30;99.90
1534;DHT22;760;48.822;9.304;2023-02-04T13:15:48;9.40;99.90
1534;DHT22;760;48.822;9.304;2023-02-04T13:18:14;9.40;99.90
1534;DHT22;760;48.822;9.304;2023-02-04T13:20:40;9.50;99.90
1534;DHT22;760;48.822;9.304;2023-02-04T13:23:06;9.60;99.90
1534;DHT22;760;48.822;9.304;2023-02-04T13:25:32;9.60;99.90
1534;DHT22;760;48.822;9.304;2023-02-04T13:27:58;9.60;99.90
1534;DHT22;760;48.822;9.304;2023-02-04T13:30:23;9.50;99.90
1534;DHT22;760;48.822;9.304;2023-02-04T13:32:49;9.50;99.90
1534;DHT22;760;48.822;9.304;2023-02-04T13:35:14;9.50;99.90
1534;DHT22;760;48.822;9.304;2023-02-04T13:37:40;9.40;99.90
1534;DHT22;760;48.822;9.304;2023-02-04T13:40:07;9.50;99.90
1534;DHT22;760;48.822;9.304;2023-02-04T13:42:34;9.50;99.90
1534;DHT22;760;48.822;9.304;2023-02-04T13:44:59;9.40;99.90
1534;DHT22;760;48.822;9.304;2023-02-04T13:47:25;9.40;99.90
1534;DHT22;760;48.822;9.304;2023-02-04T13:49:51;9.40;99.90
1534;DHT22;760;48.822;9.304;2023-02-04T13:52:17;9.40;99.90
1534;DHT22;760;48.822;9.304;2023-02-04T13:54:43;9.40;99.90
1534;DHT22;760;48.822;9.304;2023-02-04T13:57:09;9.30;99.90
1534;DHT22;760;48.822;9.304;2023-02-04T13:59:35;9.30;99.90
1534;DHT22;760;48.822;9.304;2023-02-04T14:02:01;9.30;99.90
1534;DHT22;760;48.822;9.304;2023-02-04T14:04:26;9.30;99.90
1534;DHT22;760;48.822;9.304;2023-02-04T14:06:52;9.30;99.90
1534;DHT22;760;48.822;9.304;2023-02-04T14:09:19;9.30;99.90
1534;DHT22;760;48.822;9.304;2023-02-04T14:11:46;9.30;99.90
1534;DHT22;760;48.822;9.304;2023-02-04T14:14:12;9.30;99.90
1534;DHT22;760;48.822;9.304;2023-02-04T14:16:37;9.30;99.90
1534;DHT22;760;48.822;9.304;2023-02-04T14:19:03;9.30;99.90
1534;DHT22;760;48.822;9.304;2023-02-04T14:21:29;9.30;99.90
1534;DHT22;760;48.822;9.304;2023-02-04T14:23:54;9.30;99.90
1534;DHT22;760;48.822;9.304;2023-02-04T14:26:20;9.40;99.90
1534;DHT22;760;48.822;9.304;2023-02-04T14:28:46;9.40;99.90
1534;DHT22;760;48.822;9.304;2023-02-04T14:31:11;9.30;99.90
1534;DHT22;760;48.822;9.304;2023-02-04T14:33:37;9.30;99.90
1534;DHT22;760;48.822;9.304;2023-02-04T14:36:02;9.40;99.90
1534;DHT22;760;48.822;9.304;2023-02-04T14:38:28;9.40;99.90
1534;DHT22;760;48.822;9.304;2023-02-04T14:40:58;9.50;99.90
1534;DHT22;760;48.822;9.304;2023-02-04T14:43:24;9.60;99.90
1534;DHT22;760;48.822;9.304;2023-02-04T14:45:50;9.50;99.90
1534;DHT22;760;48.822;9.304;2023-02-04T14:48:16;9.40;99.90
1534;DHT22;760;48.822;9.304;2023-02-04T14:50:41;9.40;99.90
1534;DHT22;760;48.822;9.304;2023-02-04T14:53:07;9.40;99.90
1534;DHT22;760;48.822;9.304;2023-02-04T14:55:32;9.30;99.90
1534;DHT22;760;48.822;9.304;2023-02-04T14:57:58;9.20;99.90
1534;DHT22;760;48.822;9.304;2023-02-04T15:00:24;9.20;99.90
1534;DHT22;760;48.822;9.304;2023-02-04T15:02:50;9.20;99.90
1534;DHT22;760;48.822;9.304;2023-02-04T15:05:15;9.20;99.90
1534;DHT22;760;48.822;9.304;2023-02-04T15:07:41;9.20;99.90
1534;DHT22;760;48.822;9.304;2023-02-04T15:10:08;9.20;99.90
1534;DHT22;760;48.822;9.304;2023-02-04T15:12:34;9.20;99.90
1534;DHT22;760;48.822;9.304;2023-02-04T15:15:00;9.10;99.90
1534;DHT22;760;48.822;9.304;2023-02-04T15:17:26;9.00;99.90
1534;DHT22;760;48.822;9.304;2023-02-04T15:19:51;8.90;99.90
1534;DHT22;760;48.822;9.304;2023-02-04T15:22:17;8.80;99.90
1534;DHT22;760;48.822;9.304;2023-02-04T15:24:42;8.70;99.90
1534;DHT22;760;48.822;9.304;2023-02-04T15:27:08;8.60;99.90
1534;DHT22;760;48.822;9.304;2023-02-04T15:29:34;8.50;99.90
1534;DHT22;760;48.822;9.304;2023-02-04T15:31:59;8.40;99.90
1534;DHT22;760;48.822;9.304;2023-02-04T15:34:25;8.40;99.90
1534;DHT22;760;48.822;9.304;2023-02-04T15:36:51;8.30;99.90
1534;DHT22;760;48.822;9.304;2023-02-04T15:39:16;8.20;99.90
1534;DHT22;760;48.822;9.304;2023-02-04T15:41:42;8.20;99.90
1534;DHT22;760;48.822;9.304;2023-02-04T15:44:07;8.10;99.90
1534;DHT22;760;48.822;9.304;2023-02-04T15:46:33;8.00;99.90
1534;DHT22;760;48.822;9.304;2023-02-04T15:49:01;7.90;99.90
1534;DHT22;760;48.822;9.304;2023-02-04T15:51:27;7.80;99.90
1534;DHT22;760;48.822;9.304;2023-02-04T15:53:53;7.80;99.90
1534;DHT22;760;48.822;9.304;2023-02-04T15:56:18;7.70;99.90
1534;DHT22;760;48.822;9.304;2023-02-04T15:58:44;7.60;99.90
1534;DHT22;760;48.822;9.304;2023-02-04T16:01:10;7.60;99.90
1534;DHT22;760;48.822;9.304;2023-02-04T16:03:35;7.50;99.90
1534;DHT22;760;48.822;9.304;2023-02-04T16:06:01;7.40;99.90
1534;DHT22;760;48.822;9.304;2023-02-04T16:08:27;7.30;99.90
1534;DHT22;760;48.822;9.304;2023-02-04T16:10:52;7.30;99.90
1534;DHT22;760;48.822;9.304;2023-02-04T16:13:21;7.30;99.90
1534;DHT22;760;48.822;9.304;2023-02-04T16:15:46;7.30;99.90
1534;DHT22;760;48.822;9.304;2023-02-04T16:18:12;7.30;99.90
1534;DHT22;760;48.822;9.304;2023-02-04T16:20:37;7.30;99.90
1534;DHT22;760;48.822;9.304;2023-02-04T16:23:03;7.30;99.90
1534;DHT22;760;48.822;9.304;2023-02-04T16:25:31;7.30;99.90
1534;DHT22;760;48.822;9.304;2023-02-04T16:27:57;7.20;99.90
1534;DHT22;760;48.822;9.304;2023-02-04T16:30:23;7.20;99.90
1534;DHT22;760;48.822;9.304;2023-02-04T16:32:48;7.10;99.90
1534;DHT22;760;48.822;9.304;2023-02-04T16:35:14;7.10;99.90
1534;DHT22;760;48.822;9.304;2023-02-04T16:37:39;7.10;99.90
1534;DHT22;760;48.822;9.304;2023-02-04T16:40:06;6.90;99.90
1534;DHT22;760;48.822;9.304;2023-02-04T16:42:32;6.90;99.90
1534;DHT22;760;48.822;9.304;2023-02-04T16:44:58;6.80;99.90
1534;DHT22;760;48.822;9.304;2023-02-04T16:47:24;6.80;99.90
1534;DHT22;760;48.822;9.304;2023-02-04T16:49:49;6.70;99.90
1534;DHT22;760;48.822;9.304;2023-02-04T16:52:16;6.70;99.90
1534;DHT22;760;48.822;9.304;2023-02-04T16:54:41;6.60;99.90
1534;DHT22;760;48.822;9.304;2023-02-04T16:57:08;6.60;99.90
1534;DHT22;760;48.822;9.304;2023-02-04T16:59:34;6.50;99.90
1534;DHT22;760;48.822;9.304;2023-02-04T17:02:00;6.40;99.90
1534;DHT22;760;48.822;9.304;2023-02-04T17:04:26;6.40;99.90
1534;DHT22;760;48.822;9.304;2023-02-04T17:06:52;6.30;99.90
1534;DHT22;760;48.822;9.304;2023-02-04T17:09:18;6.30;99.90
1534;DHT22;760;48.822;9.304;2023-02-04T17:11:43;6.20;99.90
1534;DHT22;760;48.822;9.304;2023-02-04T17:14:10;6.10;99.90
1534;DHT22;760;48.822;9.304;2023-02-04T17:16:43;6.00;99.90
1534;DHT22;760;48.822;9.304;2023-02-04T17:19:09;5.90;99.90
1534;DHT22;760;48.822;9.304;2023-02-04T17:21:35;5.90;99.90
1534;DHT22;760;48.822;9.304;2023-02-04T17:24:04;5.80;99.90
1534;DHT22;760;48.822;9.304;2023-02-04T17:26:31;5.80;99.90
1534;DHT22;760;48.822;9.304;2023-02-04T17:29:03;5.80;99.90
1534;DHT22;760;48.822;9.304;2023-02-04T17:31:29;5.70;99.90
1534;DHT22;760;48.822;9.304;2023-02-04T17:33:54;5.70;99.90
1534;DHT22;760;48.822;9.304;2023-02-04T17:36:20;5.70;99.90
1534;DHT22;760;48.822;9.304;2023-02-04T17:38:45;5.60;99.90
1534;DHT22;760;48.822;9.304;2023-02-04T17:41:11;5.60;99.90
1534;DHT22;760;48.822;9.304;2023-02-04T17:43:37;5.50;99.90
1534;DHT22;760;48.822;9.304;2023-02-04T17:46:02;5.50;99.90
1534;DHT22;760;48.822;9.304;2023-02-04T17:48:28;5.60;99.90
1534;DHT22;760;48.822;9.304;2023-02-04T17:50:54;5.60;99.90
1534;DHT22;760;48.822;9.304;2023-02-04T17:53:19;5.60;99.90
1534;DHT22;760;48.822;9.304;2023-02-04T17:55:45;5.60;99.90
1534;DHT22;760;48.822;9.304;2023-02-04T17:58:16;5.60;99.90
1534;DHT22;760;48.822;9.304;2023-02-04T18:00:45;5.60;99.90
1534;DHT22;760;48.822;9.304;2023-02-04T18:03:18;5.50;99.90
1534;DHT22;760;48.822;9.304;2023-02-04T18:05:47;5.60;99.90
1534;DHT22;760;48.822;9.304;2023-02-04T18:08:20;5.50;99.90
1534;DHT22;760;48.822;9.304;2023-02-04T18:10:48;5.60;99.90
1534;DHT22;760;48.822;9.304;2023-02-04T18:13:17;5.60;99.90
1534;DHT22;760;48.822;9.304;2023-02-04T18:15:46;5.50;99.90
1534;DHT22;760;48.822;9.304;2023-02-04T18:20:41;5.60;99.90
1534;DHT22;760;48.822;9.304;2023-02-04T18:23:14;5.60;99.90
1534;DHT22;760;48.822;9.304;2023-02-04T18:25:40;5.60;99.90
1534;DHT22;760;48.822;9.304;2023-02-04T18:28:15;5.60;99.90
1534;DHT22;760;48.822;9.304;2023-02-04T18:30:42;5.60;99.90
1534;DHT22;760;48.822;9.304;2023-02-04T18:33:15;5.50;99.90
1534;DHT22;760;48.822;9.304;2023-02-04T18:35:43;5.60;99.90
1534;DHT22;760;48.822;9.304;2023-02-04T18:38:32;5.50;99.90
1534;DHT22;760;48.822;9.304;2023-02-04T18:43:44;5.50;99.90
1534;DHT22;760;48.822;9.304;2023-02-04T18:46:26;5.40;99.90
1534;DHT22;760;48.822;9.304;2023-02-04T18:51:24;5.30;99.90
1534;DHT22;760;48.822;9.304;2023-02-04T18:53:52;5.20;99.90
1534;DHT22;760;48.822;9.304;2023-02-04T18:56:19;5.10;99.90
1534;DHT22;760;48.822;9.304;2023-02-04T18:58:45;5.10;99.90
1534;DHT22;760;48.822;9.304;2023-02-04T19:01:22;5.00;99.90
1534;DHT22;760;48.822;9.304;2023-02-04T19:04:01;4.90;99.90
1534;DHT22;760;48.822;9.304;2023-02-04T19:06:39;4.80;99.90
1534;DHT22;760;48.822;9.304;2023-02-04T19:09:26;4.70;99.90
1534;DHT22;760;48.822;9.304;2023-02-04T19:11:59;4.60;99.90
1534;DHT22;760;48.822;9.304;2023-02-04T19:14:42;4.60;99.90
1534;DHT22;760;48.822;9.304;2023-02-04T19:17:21;4.50;99.90
1534;DHT22;760;48.822;9.304;2023-02-04T19:19:55;4.40;99.90
1534;DHT22;760;48.822;9.304;2023-02-04T19:22:34;4.30;99.90
1534;DHT22;760;48.822;9.304;2023-02-04T19:27:49;4.20;99.90
1534;DHT22;760;48.822;9.304;2023-02-04T19:32:55;4.10;99.90
1534;DHT22;760;48.822;9.304;2023-02-04T19:35:27;4.10;99.90
1534;DHT22;760;48.822;9.304;2023-02-04T19:38:00;4.00;99.90
1534;DHT22;760;48.822;9.304;2023-02-04T19:40:32;4.00;99.90
1534;DHT22;760;48.822;9.304;2023-02-04T19:45:49;3.90;99.90
1534;DHT22;760;48.822;9.304;2023-02-04T19:48:34;3.90;99.90
1534;DHT22;760;48.822;9.304;2023-02-04T19:51:27;3.90;99.90
1534;DHT22;760;48.822;9.304;2023-02-04T19:53:57;3.90;99.90
1534;DHT22;760;48.822;9.304;2023-02-04T19:56:35;3.80;99.90
1534;DHT22;760;48.822;9.304;2023-02-04T19:59:24;3.80;99.90
1534;DHT22;760;48.822;9.304;2023-02-04T20:04:22;3.80;99.90
1534;DHT22;760;48.822;9.304;2023-02-04T20:06:48;3.80;99.90
1534;DHT22;760;48.822;9.304;2023-02-04T20:09:17;3.80;99.90
1534;DHT22;760;48.822;9.304;2023-02-04T20:11:54;3.70;99.90
1534;DHT22;760;48.822;9.304;2023-02-04T20:14:27;3.70;99.90
1534;DHT22;760;48.822;9.304;2023-02-04T20:16:58;3.60;99.90
1534;DHT22;760;48.822;9.304;2023-02-04T20:22:14;3.60;99.90
1534;DHT22;760;48.822;9.304;2023-02-04T20:24:54;3.60;99.90
1534;DHT22;760;48.822;9.304;2023-02-04T20:27:22;3.50;99.90
1534;DHT22;760;48.822;9.304;2023-02-04T20:29:58;3.40;99.90
1534;DHT22;760;48.822;9.304;2023-02-04T20:32:26;3.30;99.90
1534;DHT22;760;48.822;9.304;2023-02-04T20:37:40;3.20;99.90
1534;DHT22;760;48.822;9.304;2023-02-04T20:40:25;3.30;99.90
1534;DHT22;760;48.822;9.304;2023-02-04T20:43:12;3.20;99.90
1534;DHT22;760;48.822;9.304;2023-02-04T20:45:54;3.20;99.90
1534;DHT22;760;48.822;9.304;2023-02-04T20:48:36;3.20;99.90
1534;DHT22;760;48.822;9.304;2023-02-04T20:51:04;3.30;99.90
1534;DHT22;760;48.822;9.304;2023-02-04T20:56:27;3.30;99.90
1534;DHT22;760;48.822;9.304;2023-02-04T20:59:19;3.30;99.90
1534;DHT22;760;48.822;9.304;2023-02-04T21:01:49;3.20;99.90
1534;DHT22;760;48.822;9.304;2023-02-04T21:06:40;3.10;99.90
1534;DHT22;760;48.822;9.304;2023-02-04T21:09:11;3.00;99.90
1534;DHT22;760;48.822;9.304;2023-02-04T21:11:40;3.00;99.90
1534;DHT22;760;48.822;9.304;2023-02-04T21:14:05;3.10;99.90
1534;DHT22;760;48.822;9.304;2023-02-04T21:16:31;3.00;99.90
1534;DHT22;760;48.822;9.304;2023-02-04T21:18:57;3.00;99.90
1534;DHT22;760;48.822;9.304;2023-02-04T21:21:22;2.90;99.90
1534;DHT22;760;48.822;9.304;2023-02-04T21:23:49;2.90;99.90
1534;DHT22;760;48.822;9.304;2023-02-04T21:26:14;2.90;99.90
1534;DHT22;760;48.822;9.304;2023-02-04T21:28:40;2.80;99.90
1534;DHT22;760;48.822;9.304;2023-02-04T21:31:05;2.80;99.90
1534;DHT22;760;48.822;9.304;2023-02-04T21:33:31;2.70;99.90
1534;DHT22;760;48.822;9.304;2023-02-04T21:35:57;2.70;99.90
1534;DHT22;760;48.822;9.304;2023-02-04T21:38:23;2.60;99.90
1534;DHT22;760;48.822;9.304;2023-02-04T21:40:49;2.50;99.90
1534;DHT22;760;48.822;9.304;2023-02-04T21:43:14;2.50;99.90
1534;DHT22;760;48.822;9.304;2023-02-04T21:45:40;2.50;99.90
1534;DHT22;760;48.822;9.304;2023-02-04T21:48:06;2.50;99.90
1534;DHT22;760;48.822;9.304;2023-02-04T21:50:32;2.40;99.90
1534;DHT22;760;48.822;9.304;2023-02-04T21:52:58;2.40;99.90
1534;DHT22;760;48.822;9.304;2023-02-04T21:55:24;2.40;99.90
1534;DHT22;760;48.822;9.304;2023-02-04T21:57:50;2.30;99.90
1534;DHT22;760;48.822;9.304;2023-02-04T22:00:18;2.30;99.90
1534;DHT22;760;48.822;9.304;2023-02-04T22:02:47;2.30;99.90
1534;DHT22;760;48.822;9.304;2023-02-04T22:05:12;2.30;99.90
1534;DHT22;760;48.822;9.304;2023-02-04T22:07:38;2.30;99.90
1534;DHT22;760;48.822;9.304;2023-02-04T22:10:08;2.30;99.90
1534;DHT22;760;48.822;9.304;2023-02-04T22:12:34;2.30;99.90
1534;DHT22;760;48.822;9.304;2023-02-04T22:15:00;2.40;99.90
1534;DHT22;760;48.822;9.304;2023-02-04T22:17:41;2.40;99.90
1534;DHT22;760;48.822;9.304;2023-02-04T22:20:07;2.40;99.90
1534;DHT22;760;48.822;9.304;2023-02-04T22:22:33;2.40;99.90
1534;DHT22;760;48.822;9.304;2023-02-04T22:24:59;2.40;99.90